createdAt,value
2022-09-14T00:00:16.168Z,15.58
2022-09-14T00:05:17.862Z,15.24
2022-09-14T00:10:19.451Z,15.15
2022-09-14T00:15:21.071Z,15.29
2022-09-14T00:20:22.716Z,15.13
2022-09-14T00:25:26.431Z,15.19
2022-09-14T00:30:28.308Z,15.02
2022-09-14T00:35:29.904Z,14.88
2022-09-14T00:40:31.509Z,15.01
2022-09-14T00:45:33.269Z,15.11
2022-09-14T00:50:35.483Z,15.04
2022-09-14T00:55:37.416Z,15.22
2022-09-14T01:00:39.092Z,15.24
2022-09-14T01:06:17.728Z,15.38
2022-09-14T01:11:25.195Z,15.55
2022-09-14T01:16:55.647Z,15.48
2022-09-14T01:22:07.214Z,15.47
2022-09-14T01:27:26.424Z,15.44
2022-09-14T01:32:37.580Z,15.52
2022-09-14T01:37:47.982Z,15.71
2022-09-14T01:42:55.052Z,15.72
2022-09-14T01:48:07.152Z,15.56
2022-09-14T01:53:17.864Z,15.80
2022-09-14T01:58:37.857Z,15.79
2022-09-14T02:03:49.946Z,15.82
2022-09-14T02:08:52.334Z,15.90
2022-09-14T02:13:54.123Z,15.83
2022-09-14T02:18:56.071Z,16.13
2022-09-14T02:24:00.090Z,16.23
2022-09-14T02:29:01.842Z,16.14
2022-09-14T02:34:11.075Z,16.01
2022-09-14T02:39:33.385Z,16.23
2022-09-14T02:44:52.366Z,16.12
2022-09-14T02:50:16.766Z,16.16
2022-09-14T02:55:21.715Z,16.27
2022-09-14T03:00:23.393Z,16.36
2022-09-14T03:05:25.446Z,16.33
2022-09-14T03:10:27.529Z,16.26
2022-09-14T03:15:29.183Z,16.48
2022-09-14T03:20:32.895Z,16.38
2022-09-14T03:25:38.922Z,16.40
2022-09-14T03:30:40.788Z,16.49
2022-09-14T03:35:42.388Z,16.63
2022-09-14T03:40:44.125Z,16.49
2022-09-14T03:45:45.727Z,16.26
2022-09-14T03:50:47.331Z,16.66
2022-09-14T03:55:49.194Z,16.61
2022-09-14T04:00:51.349Z,16.73
2022-09-14T04:05:56.628Z,16.88
2022-09-14T04:10:58.242Z,16.58
2022-09-14T04:16:00.548Z,16.70
2022-09-14T04:21:08.863Z,16.85
2022-09-14T04:26:16.263Z,17.05
2022-09-14T04:31:18.043Z,16.79
2022-09-14T04:36:22.630Z,16.75
2022-09-14T04:41:25.001Z,16.60
2022-09-14T04:46:29.511Z,16.58
2022-09-14T04:51:33.221Z,16.80
2022-09-14T04:56:37.145Z,16.76
2022-09-14T05:01:42.954Z,16.64
2022-09-14T05:06:44.983Z,16.58
2022-09-14T05:11:47.018Z,16.48
2022-09-14T05:16:48.607Z,16.60
2022-09-14T05:21:50.215Z,16.58
2022-09-14T05:26:52.818Z,16.61
2022-09-14T05:31:56.184Z,16.75
2022-09-14T05:36:57.904Z,16.75
2022-09-14T05:41:59.517Z,16.72
2022-09-14T05:47:01.115Z,16.74
2022-09-14T05:52:03.024Z,16.72
2022-09-14T05:57:04.798Z,16.74
2022-09-14T06:02:06.831Z,16.69
2022-09-14T06:07:18.294Z,16.96
2022-09-14T06:12:20.540Z,16.89
2022-09-14T06:17:22.136Z,16.84
2022-09-14T06:22:23.927Z,16.90
2022-09-14T06:27:25.613Z,17.04
2022-09-14T06:32:30.929Z,17.14
2022-09-14T06:37:32.536Z,17.37
2022-09-14T06:42:34.134Z,17.46
2022-09-14T06:47:37.372Z,17.38
2022-09-14T06:52:40.514Z,17.61
2022-09-14T06:57:43.201Z,17.46
2022-09-14T07:02:45.882Z,17.37
2022-09-14T07:07:53.013Z,17.56
2022-09-14T07:12:55.932Z,17.57
2022-09-14T07:17:59.059Z,17.36
2022-09-14T07:23:00.895Z,17.08
2022-09-14T07:28:02.932Z,17.43
2022-09-14T07:33:05.643Z,17.62
2022-09-14T07:38:07.384Z,17.51
2022-09-14T07:43:10.757Z,17.53
2022-09-14T07:48:12.627Z,17.61
2022-09-14T07:53:14.911Z,17.67
2022-09-14T07:58:16.686Z,17.53
2022-09-14T08:03:18.369Z,17.40
2022-09-14T08:08:21.822Z,17.66
2022-09-14T08:13:23.628Z,17.66
2022-09-14T08:18:25.343Z,17.48
2022-09-14T08:23:27.174Z,17.42
2022-09-14T08:28:28.777Z,17.73
2022-09-14T08:33:31.713Z,17.67
2022-09-14T08:38:33.355Z,17.51
2022-09-14T08:43:35.146Z,17.46
2022-09-14T08:48:48.555Z,17.58
2022-09-14T08:53:53.616Z,17.66
2022-09-14T08:59:18.014Z,17.74
2022-09-14T09:04:24.055Z,17.70
2022-09-14T09:09:46.519Z,17.63
2022-09-14T09:15:00.641Z,18.33
2022-09-14T09:20:06.612Z,18.60
2022-09-14T09:25:20.467Z,18.46
2022-09-14T09:30:22.049Z,18.21
2022-09-14T09:35:26.334Z,17.94
2022-09-14T09:40:42.166Z,18.39
2022-09-14T09:46:07.050Z,18.83
2022-09-14T09:51:17.430Z,18.56
2022-09-14T09:56:24.184Z,17.80
2022-09-14T10:01:34.944Z,18.39
2022-09-14T10:06:42.702Z,18.82
2022-09-14T10:11:46.115Z,18.96
2022-09-14T10:16:47.867Z,18.25
2022-09-14T10:22:26.488Z,17.94
2022-09-14T10:27:50.587Z,18.24
2022-09-14T10:33:04.913Z,18.39
2022-09-14T10:38:33.879Z,18.05
2022-09-14T10:43:57.357Z,17.83
2022-09-14T10:49:24.304Z,18.36
2022-09-14T10:54:48.504Z,18.66
2022-09-14T11:00:03.294Z,18.62
2022-09-14T11:05:34.461Z,18.47
2022-09-14T11:11:17.890Z,18.49
2022-09-14T11:16:40.753Z,18.54
2022-09-14T11:22:03.529Z,18.15
2022-09-14T11:27:32.341Z,18.25
2022-09-14T11:32:40.497Z,18.22
2022-09-14T11:38:00.840Z,17.88
2022-09-14T11:43:17.543Z,18.08
2022-09-14T11:48:45.157Z,18.11
2022-09-14T11:53:47.372Z,18.47
2022-09-14T11:58:49.798Z,18.76
2022-09-14T12:04:02.165Z,18.91
2022-09-14T12:09:29.876Z,18.71
2022-09-14T12:14:36.666Z,19.07
2022-09-14T12:19:39.205Z,19.07
2022-09-14T12:24:40.861Z,19.15
2022-09-14T12:29:42.809Z,19.35
2022-09-14T12:34:44.439Z,19.65
2022-09-14T12:40:32.442Z,19.89
2022-09-14T12:46:18.498Z,20.07
2022-09-14T12:51:32.696Z,20.22
2022-09-14T12:56:37.078Z,20.59
2022-09-14T13:02:10.236Z,20.64
2022-09-14T13:07:17.971Z,20.59
2022-09-14T13:12:37.530Z,20.34
2022-09-14T13:17:56.499Z,19.88
2022-09-14T13:22:58.528Z,19.60
2022-09-14T13:28:05.940Z,18.95
2022-09-14T13:33:15.463Z,19.30
2022-09-14T13:38:28.474Z,18.73
2022-09-14T13:43:30.352Z,18.80
2022-09-14T13:48:32.058Z,18.97
2022-09-14T13:53:39.170Z,18.85
2022-09-14T13:58:40.847Z,18.98
2022-09-14T14:03:49.099Z,18.97
2022-09-14T14:09:00.608Z,18.79
2022-09-14T14:14:22.391Z,18.82
2022-09-14T14:19:31.133Z,18.58
2022-09-14T14:24:32.766Z,18.60
2022-09-14T14:29:34.409Z,18.27
2022-09-14T14:34:36.440Z,18.15
2022-09-14T14:39:39.047Z,18.03
2022-09-14T14:44:42.283Z,18.25
2022-09-14T14:49:43.997Z,18.36
2022-09-14T14:54:45.641Z,18.39
2022-09-14T14:59:47.264Z,18.42
2022-09-14T15:04:48.999Z,18.44
2022-09-14T15:09:50.637Z,18.31
2022-09-14T15:14:52.248Z,18.18
2022-09-14T15:19:53.869Z,18.19
2022-09-14T15:24:55.459Z,17.86
2022-09-14T15:29:57.476Z,17.95
2022-09-14T15:34:59.099Z,17.72
2022-09-14T15:40:00.893Z,17.94
2022-09-14T15:45:03.819Z,17.92
2022-09-14T15:50:06.178Z,17.88
2022-09-14T15:55:10.313Z,17.76
2022-09-14T16:00:13.792Z,17.57
2022-09-14T16:05:16.270Z,17.52
2022-09-14T16:10:17.872Z,17.80
2022-09-14T16:15:19.546Z,17.66
2022-09-14T16:20:21.719Z,17.62
2022-09-14T16:25:23.350Z,17.48
2022-09-14T16:30:24.960Z,17.47
2022-09-14T16:35:26.571Z,17.60
2022-09-14T16:40:28.259Z,17.41
2022-09-14T16:45:29.964Z,17.42
2022-09-14T16:50:31.808Z,17.53
2022-09-14T16:55:33.447Z,17.48
2022-09-14T17:00:35.531Z,17.37
2022-09-14T17:05:37.154Z,17.31
2022-09-14T17:10:38.781Z,17.58
2022-09-14T17:15:40.417Z,17.45
2022-09-14T17:20:52.619Z,17.65
2022-09-14T17:25:55.285Z,17.49
2022-09-14T17:30:59.499Z,17.20
2022-09-14T17:36:02.649Z,17.01
2022-09-14T17:41:07.181Z,16.87
2022-09-14T17:46:14.201Z,16.89
2022-09-14T17:51:21.152Z,16.95
2022-09-14T17:56:24.634Z,16.85
2022-09-14T18:01:26.292Z,16.60
2022-09-14T18:06:31.282Z,16.89
2022-09-14T18:11:33.481Z,16.73
2022-09-14T18:16:35.127Z,16.67
2022-09-14T18:21:37.045Z,16.49
2022-09-14T18:26:38.687Z,16.42
2022-09-14T18:31:40.448Z,16.52
2022-09-14T18:36:42.128Z,16.70
2022-09-14T18:41:44.208Z,16.70
2022-09-14T18:46:46.891Z,16.48
2022-09-14T18:51:48.798Z,16.43
2022-09-14T18:56:51.133Z,16.77
2022-09-14T19:01:52.787Z,16.73
2022-09-14T19:06:54.421Z,16.52
2022-09-14T19:11:56.046Z,16.57
2022-09-14T19:16:58.459Z,16.20
2022-09-14T19:22:00.050Z,16.37
2022-09-14T19:27:01.725Z,16.45
2022-09-14T19:32:03.379Z,16.30
2022-09-14T19:37:05.189Z,16.05
2022-09-14T19:42:06.817Z,16.36
2022-09-14T19:47:08.437Z,16.20
2022-09-14T19:52:10.048Z,16.17
2022-09-14T19:57:11.765Z,16.13
2022-09-14T20:02:13.801Z,16.12
2022-09-14T20:07:15.542Z,15.88
2022-09-14T20:12:17.128Z,16.20
2022-09-14T20:17:18.774Z,16.26
2022-09-14T20:22:20.401Z,16.15
2022-09-14T20:27:22.143Z,16.28
2022-09-14T20:32:25.170Z,16.00
2022-09-14T20:37:28.577Z,15.99
2022-09-14T20:42:30.174Z,15.82
2022-09-14T20:47:31.793Z,16.06
2022-09-14T20:52:33.381Z,16.09
2022-09-14T20:57:34.972Z,15.98
2022-09-14T21:02:37.638Z,15.95
2022-09-14T21:07:39.255Z,16.06
2022-09-14T21:12:40.912Z,16.01
2022-09-14T21:17:42.513Z,15.87
2022-09-14T21:22:45.411Z,15.85
2022-09-14T21:27:47.027Z,15.90
2022-09-14T21:32:50.173Z,15.69
2022-09-14T21:37:51.817Z,15.58
2022-09-14T21:42:54.431Z,15.42
2022-09-14T21:47:56.007Z,15.46
2022-09-14T21:52:57.679Z,15.48
2022-09-14T21:57:59.316Z,15.40
2022-09-14T22:03:01.070Z,15.34
2022-09-14T22:08:03.088Z,15.35
2022-09-14T22:13:04.685Z,15.21
2022-09-14T22:18:07.482Z,15.32
2022-09-14T22:23:09.280Z,15.31
2022-09-14T22:28:10.917Z,15.24
2022-09-14T22:33:12.509Z,15.18
2022-09-14T22:38:14.646Z,15.17
2022-09-14T22:43:16.264Z,15.13
2022-09-14T22:48:18.794Z,15.04
2022-09-14T22:53:21.619Z,15.10
2022-09-14T22:58:26.453Z,15.07
2022-09-14T23:03:28.052Z,15.08
2022-09-14T23:08:30.164Z,15.01
2022-09-14T23:13:34.762Z,15.01
2022-09-14T23:18:36.362Z,15.11
2022-09-14T23:23:41.000Z,15.04
2022-09-14T23:28:42.627Z,15.09
2022-09-14T23:33:44.224Z,14.89
2022-09-14T23:38:48.128Z,15.06
2022-09-14T23:43:50.874Z,14.99
2022-09-14T23:48:52.689Z,15.06
2022-09-14T23:53:54.413Z,15.09
2022-09-14T23:58:56.395Z,15.16
